Time;durP1;ratioP1;P1;durP2;ratioP2;P2;SDS_P1;SDS_P2;PMS_P1;PMS_P2;Temp;Humidity;BMP_temperature;BMP_pressure;BME280_temperature;BME280_humidity;BME280_pressure;Samples;Min_cycle;Max_cycle;Signal;HPM_P1;HPM_P2
2023/03/09 00:01:34;;;;;;;;;3.00;1.00;;;;;11.92;70.98;99020.13;4996927;28;46135;-61
2023/03/09 00:04:00;;;;;;;;;0.00;0.00;;;;;11.90;71.08;99021.88;4995391;28;45546;-62
2023/03/09 00:06:26;;;;;;;;;1.33;1.00;;;;;11.92;70.57;99031.69;4978224;28;45305;-61
2023/03/09 00:08:52;;;;;;;;;1.33;1.33;;;;;11.92;71.09;99039.72;4993307;28;45578;-62
2023/03/09 00:11:18;;;;;;;;;2.33;1.00;;;;;11.88;70.92;99043.31;4996285;28;46368;-61
2023/03/09 00:13:46;;;;;;;;;3.00;0.00;;;;;11.88;70.73;99040.63;4993755;28;45741;-63
2023/03/09 00:16:15;;;;;;;;;1.67;0.67;;;;;11.87;70.71;99040.63;4994580;28;45413;-63
2023/03/09 00:18:41;;;;;;;;;2.33;1.00;;;;;11.87;71.04;99046.00;4993221;28;45483;-62
2023/03/09 00:21:07;;;;;;;;;0.33;0.33;;;;;11.78;70.11;99045.16;4977810;28;45459;-60
2023/03/09 00:23:33;;;;;;;;;2.33;0.67;;;;;11.87;69.72;99059.38;4995152;28;45630;-60
2023/03/09 00:26:04;;;;;;;;;2.00;2.00;;;;;11.78;70.50;99046.94;4995124;28;45388;-60
2023/03/09 00:28:30;;;;;;;;;3.00;1.00;;;;;11.73;69.89;99046.97;4974302;28;45396;-61
2023/03/09 00:31:06;;;;;;;;;4.00;0.67;;;;;11.65;69.94;99045.22;4997803;28;46000;-62
2023/03/09 00:33:31;;;;;;;;;0.00;0.00;;;;;11.65;69.03;99054.13;4993301;28;45432;-60
2023/03/09 00:35:58;;;;;;;;;2.00;1.00;;;;;11.55;70.09;99045.28;4999159;28;45534;-61
2023/03/09 00:38:24;;;;;;;;;4.00;1.00;;;;;11.69;69.60;99085.31;4976709;28;45724;-60
2023/03/09 00:40:50;;;;;;;;;3.00;1.00;;;;;11.59;69.40;99065.75;5000562;28;45523;-59
2023/03/09 00:43:16;;;;;;;;;0.00;0.00;;;;;11.68;69.84;99074.63;4993976;28;45446;-61
2023/03/09 00:45:41;;;;;;;;;2.00;2.00;;;;;11.64;69.82;99072.88;4991283;28;45552;-60
2023/03/09 00:48:06;;;;;;;;;1.33;0.00;;;;;11.66;69.71;99073.75;4991600;28;45456;-61
2023/03/09 00:50:32;;;;;;;;;2.33;0.67;;;;;11.56;69.54;99068.44;4993373;28;46076;-59
2023/03/09 00:52:57;;;;;;;;;1.33;0.67;;;;;11.60;69.68;99072.88;4994563;28;45449;-59
2023/03/09 00:55:22;;;;;;;;;1.33;1.33;;;;;11.49;69.53;99069.38;4987819;28;45298;-61
2023/03/09 00:57:49;;;;;;;;;0.00;0.00;;;;;11.46;70.08;99069.38;5013997;28;45171;-61
2023/03/09 01:00:15;;;;;;;;;1.33;1.33;;;;;11.08;69.50;99014.28;4996658;28;47736;-60
2023/03/09 01:02:40;;;;;;;;;2.00;0.00;;;;;11.53;69.55;99102.31;5010963;28;45036;-60
2023/03/09 01:05:06;;;;;;;;;3.00;1.00;;;;;11.50;68.84;99102.34;5000629;28;45427;-60
2023/03/09 01:07:32;;;;;;;;;2.00;1.00;;;;;11.49;69.63;99106.81;5007777;28;45290;-60
2023/03/09 01:09:58;;;;;;;;;2.00;1.00;;;;;11.53;69.45;99118.38;5000197;28;45557;-63
2023/03/09 01:12:23;;;;;;;;;1.00;1.00;;;;;11.52;69.56;99127.31;5001057;28;45389;-61
2023/03/09 01:14:53;;;;;;;;;0.00;0.00;;;;;11.44;69.52;99114.84;5001035;28;45474;-60
2023/03/09 01:17:19;;;;;;;;;0.00;0.00;;;;;11.44;69.01;99120.19;5009976;28;45308;-61
2023/03/09 01:19:45;;;;;;;;;0.33;0.00;;;;;11.35;69.32;99104.19;5013592;28;45932;-59
2023/03/09 01:22:10;;;;;;;;;3.00;0.67;;;;;11.45;69.35;99137.16;5012258;28;44928;-60
2023/03/09 01:24:35;;;;;;;;;1.00;1.00;;;;;11.45;69.16;99131.78;5018324;28;45140;-59
2023/03/09 01:27:00;;;;;;;;;0.33;0.00;;;;;11.39;69.08;99129.13;5014148;28;45148;-61
2023/03/09 01:29:26;;;;;;;;;1.00;1.00;;;;;11.44;69.50;99132.69;5020912;28;45743;-60
2023/03/09 01:31:51;;;;;;;;;4.00;1.00;;;;;11.43;68.92;99131.81;5018741;28;45109;-61
2023/03/09 01:34:16;;;;;;;;;0.67;0.00;;;;;11.45;69.35;99158.53;5014304;28;45025;-61
2023/03/09 01:36:42;;;;;;;;;3.00;1.00;;;;;11.35;69.29;99141.63;5012203;28;45097;-61
2023/03/09 01:39:09;;;;;;;;;1.00;1.00;;;;;11.42;69.31;99163.91;5014273;28;45637;-61
2023/03/09 01:41:34;;;;;;;;;0.67;0.33;;;;;11.41;69.26;99168.31;5011344;28;45078;-61
2023/03/09 01:43:59;;;;;;;;;4.00;0.67;;;;;11.41;68.79;99168.31;5013075;28;45208;-59
2023/03/09 01:46:27;;;;;;;;;3.67;1.33;;;;;11.39;68.76;99174.59;5014257;28;45031;-61
2023/03/09 01:49:13;;;;;;;;;1.00;1.00;;;;;11.40;68.87;99179.03;5016059;28;46628;-60
2023/03/09 01:51:47;;;;;;;;;3.33;1.00;;;;;11.41;68.75;99186.16;5014153;28;45102;-59
2023/03/09 01:54:21;;;;;;;;;1.00;1.00;;;;;11.25;68.68;99156.81;5011601;28;45510;-60
2023/03/09 01:56:52;;;;;;;;;1.00;1.00;;;;;11.34;69.24;99171.03;5013959;28;45253;-61
2023/03/09 01:59:20;;;;;;;;;2.67;0.00;;;;;11.41;68.46;99183.50;5016307;28;45598;-61
2023/03/09 02:01:46;;;;;;;;;0.00;0.00;;;;;11.35;68.96;99172.81;5017151;28;45291;-60
2023/03/09 02:04:20;;;;;;;;;1.33;1.00;;;;;11.38;68.81;99170.13;5013631;28;49889;-59
2023/03/09 02:06:45;;;;;;;;;3.00;1.00;;;;;11.33;69.41;99158.56;5017252;28;45258;-61
2023/03/09 02:09:57;;;;;;;;;4.00;0.67;;;;;11.41;68.78;99173.66;4997006;28;45510;-62
2023/03/09 02:12:23;;;;;;;;;0.33;0.33;;;;;11.45;69.73;99185.28;5011627;28;44900;-60
2023/03/09 02:14:49;;;;;;;;;3.33;1.67;;;;;11.43;68.84;99173.66;5017783;28;45485;-59
2023/03/09 02:17:15;;;;;;;;;0.67;0.00;;;;;11.44;69.21;99179.03;5013646;28;45145;-61
2023/03/09 02:19:47;;;;;;;;;1.00;0.00;;;;;11.49;68.84;99191.50;5015970;28;46160;-62
2023/03/09 02:22:12;;;;;;;;;2.00;0.00;;;;;11.50;69.13;99185.25;5015436;28;45481;-60
2023/03/09 02:24:43;;;;;;;;;4.33;1.33;;;;;11.50;69.47;99194.19;5013899;28;45062;-61
2023/03/09 02:27:20;;;;;;;;;2.33;1.00;;;;;11.49;69.47;99196.84;5012958;28;45289;-60
2023/03/09 02:29:46;;;;;;;;;4.67;1.00;;;;;11.47;69.22;99185.28;4992776;28;45278;-60
2023/03/09 02:32:11;;;;;;;;;4.00;1.00;;;;;11.48;69.89;99192.38;5017158;28;45003;-60
2023/03/09 02:34:37;;;;;;;;;4.25;2.00;;;;;11.15;69.23;99133.66;5017102;28;45443;-60
2023/03/09 02:37:02;;;;;;;;;2.00;2.00;;;;;11.55;70.28;99203.06;5015099;28;44951;-62
2023/03/09 02:39:46;;;;;;;;;2.00;2.00;;;;;11.59;69.97;99217.31;5017096;28;45804;-59
2023/03/09 02:42:11;;;;;;;;;5.67;2.00;;;;;11.57;69.71;99211.09;4994871;28;45004;-60
2023/03/09 02:44:37;;;;;;;;;7.33;4.00;;;;;11.54;69.93;99203.06;5013637;28;45100;-59
2023/03/09 02:47:08;;;;;;;;;1.00;1.00;;;;;11.55;69.24;99211.09;5013385;28;45259;-60
2023/03/09 02:49:34;;;;;;;;;3.67;2.00;;;;;11.57;69.42;99224.47;5013243;28;46175;-60
2023/03/09 02:52:01;;;;;;;;;3.25;1.50;;;;;11.50;70.00;99228.03;5016023;28;45109;-60
2023/03/09 02:54:26;;;;;;;;;1.00;1.00;;;;;11.51;70.05;99227.16;5016756;28;44986;-59
2023/03/09 02:56:51;;;;;;;;;0.67;0.33;;;;;11.52;69.25;99234.28;5013688;28;45256;-61
2023/03/09 02:59:17;;;;;;;;;1.00;1.00;;;;;11.59;69.67;99244.97;4997907;28;47270;-60
2023/03/09 03:01:42;;;;;;;;;1.67;1.00;;;;;11.61;69.68;99235.16;5013560;28;49090;-60
2023/03/09 03:04:07;;;;;;;;;2.33;1.00;;;;;11.64;69.19;99236.94;5015387;28;45046;-59
2023/03/09 03:06:33;;;;;;;;;3.00;1.00;;;;;11.67;69.11;99246.75;5010442;28;45129;-62
2023/03/09 03:08:59;;;;;;;;;2.00;1.00;;;;;11.66;69.13;99239.59;5012744;28;45104;-59
2023/03/09 03:11:24;;;;;;;;;3.00;0.00;;;;;11.64;69.30;99236.94;5013479;28;45157;-62
2023/03/09 03:13:49;;;;;;;;;2.33;2.00;;;;;11.73;69.12;99252.97;5014573;28;45090;-61
2023/03/09 03:16:15;;;;;;;;;1.33;1.33;;;;;11.76;68.90;99246.69;5017267;28;45205;-61
2023/03/09 03:18:40;;;;;;;;;4.00;2.67;;;;;11.67;69.20;99239.59;5013562;28;50704;-63
2023/03/09 03:21:05;;;;;;;;;1.00;1.00;;;;;11.69;69.55;99247.63;4993890;28;45273;-60
2023/03/09 03:23:31;;;;;;;;;1.00;1.00;;;;;11.76;68.77;99263.66;5017113;28;45318;-60
2023/03/09 03:26:03;;;;;;;;;0.33;0.33;;;;;11.77;69.48;99261.88;5023224;28;45136;-61
2023/03/09 03:28:28;;;;;;;;;6.33;2.00;;;;;11.68;70.08;99248.50;5016672;28;45832;-60
2023/03/09 03:30:53;;;;;;;;;1.33;1.33;;;;;11.77;69.22;99259.19;5017963;28;45388;-61
2023/03/09 03:33:19;;;;;;;;;3.00;2.00;;;;;11.79;68.83;99268.97;5015900;28;45135;-59
2023/03/09 03:35:44;;;;;;;;;1.33;1.00;;;;;11.67;68.95;99242.28;5013937;28;45064;-60
2023/03/09 03:38:09;;;;;;;;;5.33;3.67;;;;;11.79;70.05;99271.66;5009419;28;46067;-60
2023/03/09 03:40:35;;;;;;;;;3.00;1.33;;;;;11.76;70.13;99274.38;4990468;28;45168;-59
2023/03/09 03:43:00;;;;;;;;;3.00;1.00;;;;;11.80;69.14;99278.81;5012154;28;45035;-59
2023/03/09 03:45:25;;;;;;;;;3.33;1.00;;;;;11.72;70.19;99267.22;5011404;28;52027;-60
2023/03/09 03:47:51;;;;;;;;;4.67;0.00;;;;;11.79;70.40;99279.69;5012932;28;46145;-60
2023/03/09 03:50:16;;;;;;;;;3.33;2.00;;;;;11.80;71.13;99270.78;5014004;28;45671;-59
2023/03/09 03:52:42;;;;;;;;;3.67;1.33;;;;;11.81;70.44;99274.34;4993802;28;45920;-60
2023/03/09 03:55:07;;;;;;;;;2.00;2.00;;;;;11.84;71.17;99293.06;5013020;28;45214;-60
2023/03/09 03:57:33;;;;;;;;;6.33;2.33;;;;;11.78;71.11;99279.72;5012446;28;45485;-59
2023/03/09 03:59:58;;;;;;;;;2.00;0.67;;;;;11.86;71.39;99298.41;5014360;28;45239;-60
2023/03/09 04:02:24;;;;;;;;;3.00;1.00;;;;;11.79;70.78;99293.06;5010324;28;45103;-60
2023/03/09 04:04:49;;;;;;;;;6.33;1.67;;;;;11.72;70.74;99277.06;5016150;28;45451;-62
2023/03/09 04:07:14;;;;;;;;;1.67;1.00;;;;;11.75;71.67;99290.44;5010881;28;45580;-59
2023/03/09 04:09:40;;;;;;;;;3.33;2.33;;;;;11.83;70.90;99315.38;5017235;28;45766;-60
2023/03/09 04:12:06;;;;;;;;;2.00;0.00;;;;;11.84;71.53;99316.25;5013795;28;45253;-61
2023/03/09 04:14:33;;;;;;;;;3.33;1.67;;;;;11.84;70.99;99324.28;5016670;28;45204;-61
2023/03/09 04:16:58;;;;;;;;;3.33;2.33;;;;;11.84;70.96;99322.50;5014941;28;45897;-64
2023/03/09 04:19:23;;;;;;;;;2.33;2.33;;;;;11.83;70.90;99330.53;4993972;28;45339;-59
2023/03/09 04:21:49;;;;;;;;;5.33;1.00;;;;;11.75;70.52;99306.47;5013028;28;45063;-62
2023/03/09 04:24:14;;;;;;;;;3.33;3.00;;;;;11.85;70.46;99318.06;5014779;28;45116;-59
2023/03/09 04:26:39;;;;;;;;;2.33;2.00;;;;;11.83;70.09;99327.84;5016130;28;45427;-58
2023/03/09 04:29:05;;;;;;;;;2.00;2.00;;;;;11.84;70.54;99329.66;5014098;28;45151;-60
2023/03/09 04:31:30;;;;;;;;;6.00;0.67;;;;;11.88;70.78;99339.44;5017193;28;45095;-60
2023/03/09 04:33:56;;;;;;;;;3.00;3.00;;;;;11.90;70.46;99332.31;5018436;28;45087;-61
2023/03/09 04:36:21;;;;;;;;;3.33;0.67;;;;;11.90;70.73;99332.31;5010647;28;49678;-60
2023/03/09 04:38:46;;;;;;;;;6.67;2.00;;;;;11.94;70.52;99339.47;4998259;28;45400;-60
2023/03/09 04:41:12;;;;;;;;;1.67;1.00;;;;;11.96;70.66;99343.94;5005402;28;45504;-60
2023/03/09 04:43:37;;;;;;;;;7.00;2.67;;;;;11.96;69.99;99338.59;5011604;28;45185;-59
2023/03/09 04:46:03;;;;;;;;;0.00;0.00;;;;;11.90;70.88;99332.31;5009823;28;57883;-62
2023/03/09 04:48:28;;;;;;;;;5.50;4.25;;;;;11.97;70.53;99356.41;5011496;28;45122;-60
2023/03/09 04:50:54;;;;;;;;;2.00;2.00;;;;;11.94;69.97;99353.72;5011788;28;45013;-60
2023/03/09 04:53:19;;;;;;;;;4.00;1.67;;;;;11.87;70.24;99337.69;5013158;28;45072;-62
2023/03/09 04:55:44;;;;;;;;;3.00;1.33;;;;;11.99;70.26;99364.44;4995110;28;46294;-59
2023/03/09 04:58:10;;;;;;;;;5.00;2.00;;;;;11.93;70.39;99351.09;5013422;28;45348;-60
2023/03/09 05:00:35;;;;;;;;;2.33;2.00;;;;;11.93;70.74;99367.16;4997293;28;45564;-60
2023/03/09 05:03:00;;;;;;;;;3.33;3.33;;;;;11.78;70.95;99341.25;5015674;28;45130;-61
2023/03/09 05:05:26;;;;;;;;;3.67;2.00;;;;;11.95;70.21;99368.91;5016467;28;59866;-61
2023/03/09 05:07:51;;;;;;;;;3.75;2.00;;;;;11.95;70.33;99360.88;4992909;28;46394;-62
2023/03/09 05:10:17;;;;;;;;;3.00;2.00;;;;;12.03;70.52;99359.97;5017376;28;45281;-60
2023/03/09 05:12:42;;;;;;;;;7.67;1.00;;;;;12.08;69.96;99361.75;5019063;28;45756;-60
2023/03/09 05:15:08;;;;;;;;;4.67;1.00;;;;;12.12;70.67;99362.63;4997204;28;46437;-60
2023/03/09 05:17:34;;;;;;;;;3.00;1.00;;;;;12.10;70.30;99351.03;5019485;28;45021;-59
2023/03/09 05:20:00;;;;;;;;;2.67;2.33;;;;;12.16;69.80;99376.00;4999116;28;45171;-60
2023/03/09 05:22:25;;;;;;;;;9.00;1.67;;;;;12.11;69.41;99371.53;5019796;28;45287;-60
2023/03/09 05:24:50;;;;;;;;;3.67;3.00;;;;;12.09;70.22;99376.94;5015340;28;45547;-62
2023/03/09 05:27:16;;;;;;;;;5.50;2.75;;;;;12.06;70.86;99366.22;5012810;28;45013;-61
2023/03/09 05:29:41;;;;;;;;;5.00;3.00;;;;;12.04;70.90;99365.31;5018053;28;45171;-61
2023/03/09 05:32:07;;;;;;;;;1.67;1.00;;;;;12.08;70.41;99384.97;5016556;28;44916;-60
2023/03/09 05:34:33;;;;;;;;;1.00;1.00;;;;;11.94;70.57;99360.88;5013688;28;46113;-61
2023/03/09 05:36:59;;;;;;;;;5.33;1.33;;;;;12.00;71.45;99387.66;4995029;28;45298;-60
2023/03/09 05:39:25;;;;;;;;;5.33;1.67;;;;;11.93;70.46;99380.53;5016756;28;45093;-61
2023/03/09 05:41:50;;;;;;;;;6.67;2.00;;;;;11.96;71.28;99394.78;5021173;28;45038;-61
2023/03/09 05:44:16;;;;;;;;;2.67;2.00;;;;;11.97;71.30;99387.66;5014398;28;45716;-61
2023/03/09 05:46:41;;;;;;;;;5.67;2.00;;;;;11.91;72.13;99375.19;5015371;28;45435;-61
2023/03/09 05:49:06;;;;;;;;;6.33;3.00;;;;;11.83;71.79;99366.22;5015251;28;44931;-59
2023/03/09 05:51:32;;;;;;;;;9.33;2.67;;;;;11.84;71.50;99376.03;4998604;28;45261;-62
2023/03/09 05:53:58;;;;;;;;;7.00;2.00;;;;;11.85;71.34;99388.53;5013061;28;44998;-61
2023/03/09 05:56:23;;;;;;;;;3.67;2.67;;;;;11.84;71.86;99388.53;5015930;28;45164;-61
2023/03/09 05:58:52;;;;;;;;;2.00;2.00;;;;;11.90;72.06;99401.91;5015077;28;45994;-60
2023/03/09 06:01:24;;;;;;;;;3.00;1.00;;;;;11.92;71.86;99411.72;4998855;28;45296;-60
2023/03/09 06:03:49;;;;;;;;;5.67;1.00;;;;;11.90;72.29;99404.59;5017257;28;45807;-60
2023/03/09 06:06:15;;;;;;;;;3.00;2.00;;;;;11.90;72.36;99410.81;5019474;28;45255;-61
2023/03/09 06:08:41;;;;;;;;;7.00;2.33;;;;;11.83;72.29;99405.47;5015754;28;45097;-62
2023/03/09 06:11:07;;;;;;;;;6.00;2.00;;;;;11.84;71.79;99402.78;5015270;28;45282;-64
2023/03/09 06:13:32;;;;;;;;;2.00;1.00;;;;;11.91;72.62;99415.31;4998527;28;46385;-64
2023/03/09 06:15:58;;;;;;;;;9.00;3.00;;;;;11.88;72.13;99409.00;5018269;28;45113;-61
2023/03/09 06:18:24;;;;;;;;;2.33;1.00;;;;;11.94;72.03;99417.09;5013348;28;44960;-60
2023/03/09 06:20:49;;;;;;;;;9.25;4.25;;;;;11.97;72.10;99423.31;5020151;28;44885;-61
2023/03/09 06:23:15;;;;;;;;;2.00;2.00;;;;;11.92;72.41;99421.56;5011794;28;45721;-60
2023/03/09 06:25:40;;;;;;;;;1.00;1.00;;;;;11.94;72.02;99442.06;5018478;28;45380;-60
2023/03/09 06:28:06;;;;;;;;;4.67;2.00;;;;;11.88;72.42;99434.03;5012800;28;44987;-64
2023/03/09 06:30:32;;;;;;;;;0.33;0.33;;;;;11.87;72.23;99434.91;5021710;28;44888;-63
2023/03/09 06:32:58;;;;;;;;;2.00;2.00;;;;;11.92;72.38;99442.97;5008612;28;45559;-62
2023/03/09 06:35:24;;;;;;;;;6.00;1.67;;;;;11.93;72.93;99451.00;5001447;28;45949;-60
2023/03/09 06:37:49;;;;;;;;;3.00;2.00;;;;;11.93;72.32;99455.47;5011629;28;45158;-61
2023/03/09 06:40:15;;;;;;;;;4.00;2.00;;;;;11.87;72.60;99437.56;5012114;28;45116;-60
2023/03/09 06:42:40;;;;;;;;;3.33;1.67;;;;;11.96;71.90;99464.38;5011118;28;45603;-59
2023/03/09 06:45:07;;;;;;;;;6.33;3.00;;;;;11.99;72.82;99463.47;5009155;28;45482;-61
2023/03/09 06:47:33;;;;;;;;;2.00;2.00;;;;;11.94;72.21;99447.41;5012774;28;45225;-59
2023/03/09 06:49:58;;;;;;;;;3.67;2.00;;;;;12.05;72.03;99470.63;5011685;28;45104;-61
2023/03/09 06:52:25;;;;;;;;;3.25;2.00;;;;;11.96;73.03;99442.97;5010623;28;45327;-61
2023/03/09 06:54:51;;;;;;;;;3.00;3.00;;;;;12.11;71.71;99466.16;5013348;28;45326;-61
2023/03/09 06:57:16;;;;;;;;;4.75;3.50;;;;;12.09;71.59;99450.97;5010710;28;45114;-62
2023/03/09 06:59:42;;;;;;;;;8.33;3.67;;;;;12.10;71.68;99450.97;5015166;28;45074;-61
2023/03/09 07:02:10;;;;;;;;;4.33;3.00;;;;;12.20;71.43;99470.59;5010845;28;47558;-61
2023/03/09 07:04:36;;;;;;;;;4.33;2.00;;;;;12.21;71.43;99471.50;5005178;28;45412;-61
2023/03/09 07:07:01;;;;;;;;;5.67;3.67;;;;;12.27;70.97;99487.56;4998591;28;45556;-62
2023/03/09 07:09:27;;;;;;;;;4.00;3.00;;;;;12.30;72.00;99485.75;5000593;28;45552;-61
2023/03/09 07:11:53;;;;;;;;;6.00;4.00;;;;;12.31;70.88;99486.69;4998896;28;45951;-60
2023/03/09 07:14:19;;;;;;;;;8.33;3.00;;;;;12.30;71.35;99482.22;5007843;28;45341;-62
2023/03/09 07:16:51;;;;;;;;;9.67;3.33;;;;;12.34;70.87;99495.59;5013299;28;46390;-64
2023/03/09 07:19:16;;;;;;;;;4.67;2.00;;;;;12.33;70.94;99499.16;4983825;28;45573;-62
2023/03/09 07:21:42;;;;;;;;;6.67;4.00;;;;;12.26;71.25;99480.41;4986902;28;46383;-61
2023/03/09 07:24:07;;;;;;;;;5.00;4.00;;;;;12.37;71.02;99508.06;5006864;28;45320;-60
2023/03/09 07:26:32;;;;;;;;;7.00;4.00;;;;;12.34;71.17;99495.59;5001032;28;45875;-61
2023/03/09 07:28:58;;;;;;;;;6.50;5.00;;;;;12.37;70.64;99493.81;5005607;28;45443;-60
2023/03/09 07:31:23;;;;;;;;;10.33;4.33;;;;;12.48;70.89;99508.97;5001396;28;46055;-62
2023/03/09 07:33:49;;;;;;;;;8.00;4.00;;;;;12.53;70.81;99514.31;4986350;28;45473;-60
2023/03/09 07:36:14;;;;;;;;;7.75;3.00;;;;;12.49;70.95;99505.41;5001317;28;45504;-63
2023/03/09 07:38:40;;;;;;;;;4.50;2.50;;;;;12.52;70.16;99509.84;4999046;28;45325;-61
2023/03/09 07:41:06;;;;;;;;;8.33;6.67;;;;;12.61;71.15;99517.88;4982021;28;47469;-61
2023/03/09 07:43:31;;;;;;;;;8.67;3.00;;;;;12.58;69.81;99523.25;4981148;28;45769;-60
2023/03/09 07:45:57;;;;;;;;;9.25;5.50;;;;;12.62;70.60;99537.53;5002562;28;51019;-61
2023/03/09 07:48:22;;;;;;;;;4.67;3.00;;;;;12.64;70.03;99533.97;5003707;28;45436;-62
2023/03/09 07:50:57;;;;;;;;;6.00;3.00;;;;;12.67;70.16;99543.75;4981048;28;48218;-62
2023/03/09 07:53:23;;;;;;;;;9.00;6.00;;;;;12.72;69.91;99542.88;4996316;28;45483;-60
2023/03/09 07:55:56;;;;;;;;;10.33;4.67;;;;;12.74;69.48;99540.19;4995652;28;45700;-63
2023/03/09 07:58:21;;;;;;;;;6.33;6.00;;;;;12.77;69.94;99547.31;4996982;28;45630;-61
2023/03/09 08:00:50;;;;;;;;;5.33;3.00;;;;;12.79;69.62;99551.78;4996295;28;45486;-59
2023/03/09 08:03:16;;;;;;;;;6.67;5.33;;;;;12.83;69.63;99540.16;4996611;28;46328;-62
2023/03/09 08:05:41;;;;;;;;;8.67;6.00;;;;;12.83;69.53;99545.50;4993886;28;45908;-61
2023/03/09 08:08:07;;;;;;;;;11.25;5.75;;;;;12.81;69.41;99533.03;4995731;28;45441;-60
2023/03/09 08:10:34;;;;;;;;;8.00;6.00;;;;;12.78;69.87;99536.59;4997317;28;45468;-61
2023/03/09 08:12:59;;;;;;;;;4.67;4.00;;;;;12.84;69.61;99543.75;4997408;28;45578;-64
2023/03/09 08:15:25;;;;;;;;;13.00;6.25;;;;;12.82;69.54;99521.41;4979233;28;45414;-61
2023/03/09 08:17:52;;;;;;;;;7.00;5.00;;;;;12.96;69.29;99550.88;4998743;28;45383;-61
2023/03/09 08:20:18;;;;;;;;;6.67;3.67;;;;;13.01;68.86;99554.41;4996723;28;45558;-60
2023/03/09 08:22:43;;;;;;;;;11.00;2.00;;;;;13.02;68.63;99543.69;4998856;28;46313;-61
2023/03/09 08:25:09;;;;;;;;;8.00;7.00;;;;;13.04;68.65;99541.91;4999708;28;45424;-61
2023/03/09 08:27:43;;;;;;;;;6.33;4.00;;;;;13.10;68.59;99546.34;4981963;28;45610;-61
2023/03/09 08:30:11;;;;;;;;;6.00;4.33;;;;;13.09;68.11;99550.81;5002894;28;46971;-63
2023/03/09 08:32:37;;;;;;;;;7.00;3.33;;;;;13.15;68.17;99554.38;5007600;28;45488;-63
2023/03/09 08:35:02;;;;;;;;;8.67;4.00;;;;;13.13;67.74;99538.28;4999748;28;45380;-61
2023/03/09 08:37:28;;;;;;;;;6.00;4.67;;;;;13.10;67.79;99530.28;4983785;28;45349;-62
2023/03/09 08:39:53;;;;;;;;;8.67;3.67;;;;;13.26;68.16;99561.50;4987422;28;47301;-61
2023/03/09 08:42:19;;;;;;;;;12.00;5.33;;;;;13.32;67.85;99557.91;5002310;28;45437;-59
2023/03/09 08:44:44;;;;;;;;;5.00;3.00;;;;;13.29;67.18;99544.47;5001474;28;45375;-60
2023/03/09 08:47:10;;;;;;;;;5.00;2.33;;;;;13.42;66.66;99553.41;4985060;28;45389;-60
2023/03/09 08:49:37;;;;;;;;;6.33;3.67;;;;;13.43;67.31;99556.09;5007685;28;45487;-62
2023/03/09 08:52:03;;;;;;;;;9.67;4.33;;;;;13.43;67.22;99547.16;4998415;28;45592;-61
2023/03/09 08:54:28;;;;;;;;;6.67;4.00;;;;;13.39;67.30;99535.53;4998194;28;45281;-61
2023/03/09 08:56:53;;;;;;;;;3.67;3.33;;;;;13.46;66.90;99544.44;4991372;28;45423;-62
2023/03/09 08:59:19;;;;;;;;;6.33;3.67;;;;;13.53;66.65;99551.56;5001343;28;45475;-61
2023/03/09 09:01:44;;;;;;;;;12.67;3.67;;;;;13.50;67.04;99548.91;5003051;28;45434;-62
2023/03/09 09:04:09;;;;;;;;;7.00;3.00;;;;;13.63;66.29;99550.63;5001433;28;45665;-62
2023/03/09 09:06:35;;;;;;;;;4.33;3.00;;;;;13.71;66.37;99553.28;5004143;28;45497;-61
2023/03/09 09:09:00;;;;;;;;;5.33;4.00;;;;;13.75;66.25;99548.78;5002196;28;45419;-60
2023/03/09 09:11:25;;;;;;;;;8.33;4.00;;;;;13.75;66.03;99552.34;5005779;28;45486;-61
2023/03/09 09:13:52;;;;;;;;;11.67;6.00;;;;;13.79;66.00;99545.16;5003484;28;45458;-61
2023/03/09 09:16:17;;;;;;;;;11.25;8.50;;;;;13.87;65.67;99555.84;5002969;28;45427;-60
2023/03/09 09:18:43;;;;;;;;;3.67;2.00;;;;;13.76;65.73;99538.03;5002137;28;46563;-61
2023/03/09 09:21:13;;;;;;;;;7.33;4.33;;;;;13.86;65.03;99548.69;5005725;28;45822;-61
2023/03/09 09:23:41;;;;;;;;;4.00;4.00;;;;;13.80;65.16;99549.63;5002887;28;45270;-62
2023/03/09 09:26:07;;;;;;;;;11.00;6.00;;;;;13.86;65.15;99557.66;4999623;28;45281;-61
2023/03/09 09:28:32;;;;;;;;;7.67;4.33;;;;;13.86;65.65;99548.69;4977886;28;46861;-62
2023/03/09 09:31:00;;;;;;;;;7.00;4.00;;;;;13.87;65.22;99534.38;4999451;28;45699;-61
2023/03/09 09:33:30;;;;;;;;;11.00;5.00;;;;;13.99;65.87;99545.94;4998773;28;45519;-62
2023/03/09 09:36:04;;;;;;;;;5.00;3.33;;;;;14.04;65.09;99536.94;5000450;28;45400;-62
2023/03/09 09:38:31;;;;;;;;;6.00;4.00;;;;;14.15;64.76;99540.44;4999984;28;46795;-61
2023/03/09 09:41:02;;;;;;;;;10.00;4.67;;;;;14.24;64.35;99531.41;5001493;28;45962;-62
2023/03/09 09:43:30;;;;;;;;;6.67;4.00;;;;;14.33;63.86;99529.53;5000300;28;45628;-60
2023/03/09 09:45:59;;;;;;;;;6.67;5.00;;;;;14.44;63.45;99525.88;5004457;28;45391;-62
2023/03/09 09:48:27;;;;;;;;;9.00;3.33;;;;;14.32;63.00;99497.31;4986439;28;45562;-60
2023/03/09 09:51:22;;;;;;;;;7.33;4.67;;;;;14.53;62.61;99525.78;5012651;28;45468;-60
2023/03/09 09:54:11;;;;;;;;;8.33;5.00;;;;;14.62;62.35;99524.81;4998570;28;45415;-62
2023/03/09 09:56:46;;;;;;;;;4.67;4.33;;;;;14.68;62.50;99525.69;5004287;28;45401;-60
2023/03/09 09:59:33;;;;;;;;;11.33;7.00;;;;;14.77;62.15;99515.75;5009394;28;45590;-61
2023/03/09 10:01:59;;;;;;;;;7.00;3.33;;;;;14.82;61.69;99516.59;4997519;28;45418;-61
2023/03/09 10:04:41;;;;;;;;;0.00;0.00;;;;;14.82;61.00;99519.28;4989179;28;45574;-61
2023/03/09 10:07:15;;;;;;;;;6.33;3.67;;;;;14.81;61.22;99501.34;5004463;28;45518;-60
2023/03/09 10:09:43;;;;;;;;;9.33;8.00;;;;;14.91;61.31;99524.53;4986570;28;46818;-61
2023/03/09 10:12:14;;;;;;;;;8.00;5.00;;;;;14.90;61.19;99520.97;5004754;28;45460;-60
2023/03/09 10:14:45;;;;;;;;;9.33;6.00;;;;;14.91;61.56;99520.06;5008065;28;45434;-60
2023/03/09 10:17:13;;;;;;;;;5.67;3.67;;;;;14.91;61.25;99519.16;5012167;28;45129;-60
2023/03/09 10:19:40;;;;;;;;;6.33;3.33;;;;;14.92;61.09;99519.13;4996419;28;46037;-60
2023/03/09 10:22:12;;;;;;;;;10.33;4.67;;;;;14.97;61.16;99526.28;4996204;28;45534;-61
2023/03/09 10:24:40;;;;;;;;;12.00;7.00;;;;;15.04;61.01;99514.53;4996149;28;45535;-60
2023/03/09 10:27:05;;;;;;;;;4.00;2.67;;;;;15.08;60.24;99516.28;4999104;28;45538;-60
2023/03/09 10:29:47;;;;;;;;;8.00;4.00;;;;;15.09;60.19;99515.38;4999350;28;45669;-61
2023/03/09 10:32:21;;;;;;;;;10.67;5.67;;;;;14.97;60.44;99497.56;4991157;28;45481;-61
2023/03/09 10:35:00;;;;;;;;;10.67;6.00;;;;;15.11;60.30;99509.06;4995754;28;46103;-61
2023/03/09 10:37:34;;;;;;;;;6.00;4.33;;;;;15.27;59.82;99514.25;4996024;28;45689;-61
2023/03/09 10:40:05;;;;;;;;;9.67;5.00;;;;;15.32;59.22;99506.13;4995864;28;45546;-61
2023/03/09 10:42:36;;;;;;;;;6.67;4.00;;;;;15.31;58.48;99505.25;4991895;28;45740;-61
2023/03/09 10:45:31;;;;;;;;;6.00;4.00;;;;;15.36;58.04;99506.06;4983139;28;45404;-60
2023/03/09 10:48:07;;;;;;;;;9.67;5.00;;;;;15.29;58.21;99486.44;4965372;28;45414;-59
2023/03/09 10:50:35;;;;;;;;;8.33;5.00;;;;;15.49;57.50;99506.78;4984734;28;47139;-60
2023/03/09 10:53:31;;;;;;;;;10.67;5.67;;;;;15.51;57.18;99499.59;4982611;28;45381;-61
2023/03/09 10:56:25;;;;;;;;;6.33;4.33;;;;;15.55;56.90;99506.69;4975758;28;45528;-61
2023/03/09 10:59:18;;;;;;;;;7.67;4.67;;;;;15.47;56.36;99489.75;4985823;28;45626;-66
2023/03/09 11:01:47;;;;;;;;;5.33;4.33;;;;;15.50;56.50;99499.59;4970571;28;45566;-62
2023/03/09 11:04:21;;;;;;;;;5.33;3.00;;;;;15.50;56.96;99500.50;4979223;28;45454;-62
2023/03/09 11:06:50;;;;;;;;;12.33;8.00;;;;;15.45;56.56;99483.50;4979417;28;45396;-60
2023/03/09 11:09:26;;;;;;;;;10.00;7.00;;;;;15.57;56.50;99494.09;4976789;28;45583;-60
2023/03/09 11:11:52;;;;;;;;;4.33;3.00;;;;;15.65;56.08;99499.38;4975941;28;46327;-61
2023/03/09 11:14:29;;;;;;;;;7.33;5.00;;;;;15.66;55.69;99498.47;4976636;28;45597;-62
2023/03/09 11:16:57;;;;;;;;;8.33;4.67;;;;;15.65;55.02;99478.72;4972360;28;45484;-62
2023/03/09 11:19:23;;;;;;;;;5.67;3.00;;;;;15.64;55.05;99489.50;4976558;28;45446;-62
2023/03/09 11:21:57;;;;;;;;;8.33;4.33;;;;;15.69;55.08;99497.53;4975638;28;45807;-59
2023/03/09 11:24:27;;;;;;;;;8.33;3.67;;;;;15.68;55.06;99498.47;4975582;28;45443;-61
2023/03/09 11:27:03;;;;;;;;;14.00;6.33;;;;;15.51;55.16;99469.97;4974749;28;45573;-60
2023/03/09 11:29:51;;;;;;;;;10.00;4.00;;;;;15.69;55.46;99511.00;4976149;28;45302;-61
2023/03/09 11:32:17;;;;;;;;;9.00;6.00;;;;;15.66;54.95;99514.63;4969909;28;45548;-62
2023/03/09 11:34:44;;;;;;;;;6.67;4.00;;;;;15.51;54.92;99494.19;4974168;28;45401;-63